sensor_id;sensor_type;location;lat;lon;timestamp;P1;durP1;ratioP1;P2;durP2;ratioP2
1753;SDS011;58380;48.312;9.246;2023-04-19T09:20:37;20.92;;;9.75;;
1753;SDS011;58380;48.312;9.246;2023-04-19T09:23:05;19.30;;;10.30;;
1753;SDS011;58380;48.312;9.246;2023-04-19T09:25:33;21.08;;;11.27;;
1753;SDS011;58380;48.312;9.246;2023-04-19T09:28:09;18.85;;;10.43;;
1753;SDS011;58380;48.312;9.246;2023-04-19T09:30:39;17.23;;;9.43;;
1753;SDS011;58380;48.312;9.246;2023-04-19T09:33:05;17.92;;;9.38;;
1753;SDS011;58380;48.312;9.246;2023-04-19T09:35:42;15.27;;;9.15;;
1753;SDS011;58380;48.312;9.246;2023-04-19T09:38:12;17.05;;;9.85;;
1753;SDS011;58380;48.312;9.246;2023-04-19T09:40:38;15.80;;;9.00;;
1753;SDS011;58380;48.312;9.246;2023-04-19T09:43:05;14.60;;;8.60;;
1753;SDS011;58380;48.312;9.246;2023-04-19T09:45:40;13.43;;;8.38;;
1753;SDS011;58380;48.312;9.246;2023-04-19T09:48:08;16.35;;;10.18;;
1753;SDS011;58380;48.312;9.246;2023-04-19T09:50:35;14.85;;;8.52;;
1753;SDS011;58380;48.312;9.246;2023-04-19T09:53:16;15.52;;;8.00;;
1753;SDS011;58380;48.312;9.246;2023-04-19T09:55:43;13.85;;;7.72;;
1753;SDS011;58380;48.312;9.246;2023-04-19T09:58:11;14.18;;;8.15;;
1753;SDS011;58380;48.312;9.246;2023-04-19T10:00:37;13.93;;;8.50;;
1753;SDS011;58380;48.312;9.246;2023-04-19T10:03:05;12.60;;;8.10;;
1753;SDS011;58380;48.312;9.246;2023-04-19T10:05:33;13.40;;;8.15;;
1753;SDS011;58380;48.312;9.246;2023-04-19T10:08:05;14.43;;;8.50;;
1753;SDS011;58380;48.312;9.246;2023-04-19T10:10:33;22.38;;;10.27;;
1753;SDS011;58380;48.312;9.246;2023-04-19T10:12:59;13.73;;;9.00;;
1753;SDS011;58380;48.312;9.246;2023-04-19T10:15:34;13.65;;;8.20;;
1753;SDS011;58380;48.312;9.246;2023-04-19T10:18:01;14.13;;;8.48;;
1753;SDS011;58380;48.312;9.246;2023-04-19T10:20:38;14.52;;;9.05;;
1753;SDS011;58380;48.312;9.246;2023-04-19T10:23:21;17.33;;;8.00;;
1753;SDS011;58380;48.312;9.246;2023-04-19T10:25:47;13.90;;;8.32;;
1753;SDS011;58380;48.312;9.246;2023-04-19T10:28:16;16.65;;;7.82;;
1753;SDS011;58380;48.312;9.246;2023-04-19T10:30:57;12.93;;;7.88;;
1753;SDS011;58380;48.312;9.246;2023-04-19T10:33:34;14.57;;;7.10;;
1753;SDS011;58380;48.312;9.246;2023-04-19T10:36:01;12.88;;;7.93;;
1753;SDS011;58380;48.312;9.246;2023-04-19T10:38:40;13.68;;;7.95;;
1753;SDS011;58380;48.312;9.246;2023-04-19T10:41:19;15.38;;;7.90;;
1753;SDS011;58380;48.312;9.246;2023-04-19T10:43:47;11.05;;;7.15;;
1753;SDS011;58380;48.312;9.246;2023-04-19T10:46:35;11.32;;;6.53;;
1753;SDS011;58380;48.312;9.246;2023-04-19T10:49:04;16.85;;;8.73;;
1753;SDS011;58380;48.312;9.246;2023-04-19T10:51:35;14.38;;;8.32;;
1753;SDS011;58380;48.312;9.246;2023-04-19T10:54:04;14.43;;;8.23;;
1753;SDS011;58380;48.312;9.246;2023-04-19T11:04:22;14.45;;;8.32;;
1753;SDS011;58380;48.312;9.246;2023-04-19T11:09:22;11.67;;;7.13;;
1753;SDS011;58380;48.312;9.246;2023-04-19T11:14:34;12.32;;;7.57;;
1753;SDS011;58380;48.312;9.246;2023-04-19T11:17:20;14.40;;;7.05;;
1753;SDS011;58380;48.312;9.246;2023-04-19T11:19:55;13.98;;;6.90;;
1753;SDS011;58380;48.312;9.246;2023-04-19T11:27:47;9.88;;;5.80;;
1753;SDS011;58380;48.312;9.246;2023-04-19T11:30:16;12.48;;;7.13;;
1753;SDS011;58380;48.312;9.246;2023-04-19T11:32:52;12.90;;;7.63;;
1753;SDS011;58380;48.312;9.246;2023-04-19T11:35:20;8.45;;;5.25;;
1753;SDS011;58380;48.312;9.246;2023-04-19T11:37:51;10.13;;;5.55;;
1753;SDS011;58380;48.312;9.246;2023-04-19T11:40:18;10.63;;;5.70;;
1753;SDS011;58380;48.312;9.246;2023-04-19T11:42:46;9.10;;;5.28;;
1753;SDS011;58380;48.312;9.246;2023-04-19T11:45:25;10.05;;;5.80;;
1753;SDS011;58380;48.312;9.246;2023-04-19T11:48:00;11.00;;;6.05;;
1753;SDS011;58380;48.312;9.246;2023-04-19T11:53:09;12.23;;;6.10;;
1753;SDS011;58380;48.312;9.246;2023-04-19T11:55:49;10.52;;;6.10;;
1753;SDS011;58380;48.312;9.246;2023-04-19T12:03:47;11.77;;;6.88;;
1753;SDS011;58380;48.312;9.246;2023-04-19T12:06:15;10.40;;;6.40;;
1753;SDS011;58380;48.312;9.246;2023-04-19T12:08:50;10.88;;;6.40;;
1753;SDS011;58380;48.312;9.246;2023-04-19T12:11:20;8.77;;;5.85;;
1753;SDS011;58380;48.312;9.246;2023-04-19T12:16:34;11.48;;;6.38;;
1753;SDS011;58380;48.312;9.246;2023-04-19T12:19:09;10.27;;;6.05;;
1753;SDS011;58380;48.312;9.246;2023-04-19T12:21:41;8.13;;;5.05;;
1753;SDS011;58380;48.312;9.246;2023-04-19T12:26:33;8.23;;;5.57;;
1753;SDS011;58380;48.312;9.246;2023-04-19T12:28:59;10.93;;;6.07;;
1753;SDS011;58380;48.312;9.246;2023-04-19T12:31:26;9.75;;;5.32;;
1753;SDS011;58380;48.312;9.246;2023-04-19T12:33:52;10.23;;;5.55;;
1753;SDS011;58380;48.312;9.246;2023-04-19T12:36:18;10.43;;;6.28;;
1753;SDS011;58380;48.312;9.246;2023-04-19T12:38:44;8.20;;;5.22;;
1753;SDS011;58380;48.312;9.246;2023-04-19T12:41:09;10.27;;;4.93;;
1753;SDS011;58380;48.312;9.246;2023-04-19T12:43:35;7.90;;;5.00;;
1753;SDS011;58380;48.312;9.246;2023-04-19T12:46:01;9.23;;;4.65;;
1753;SDS011;58380;48.312;9.246;2023-04-19T12:48:26;7.20;;;4.67;;
1753;SDS011;58380;48.312;9.246;2023-04-19T12:50:53;7.75;;;4.45;;
1753;SDS011;58380;48.312;9.246;2023-04-19T12:53:19;6.97;;;4.30;;
1753;SDS011;58380;48.312;9.246;2023-04-19T12:55:46;8.50;;;5.05;;
1753;SDS011;58380;48.312;9.246;2023-04-19T12:58:13;6.88;;;4.50;;
1753;SDS011;58380;48.312;9.246;2023-04-19T13:00:40;8.80;;;5.05;;
1753;SDS011;58380;48.312;9.246;2023-04-19T13:03:06;9.75;;;5.28;;
1753;SDS011;58380;48.312;9.246;2023-04-19T13:05:32;10.75;;;5.70;;
1753;SDS011;58380;48.312;9.246;2023-04-19T13:07:57;27.40;;;6.80;;
1753;SDS011;58380;48.312;9.246;2023-04-19T13:13:35;9.57;;;5.70;;
1753;SDS011;58380;48.312;9.246;2023-04-19T13:16:01;10.87;;;6.73;;
1753;SDS011;58380;48.312;9.246;2023-04-19T13:18:27;10.55;;;6.57;;
1753;SDS011;58380;48.312;9.246;2023-04-19T13:20:52;11.07;;;7.03;;
1753;SDS011;58380;48.312;9.246;2023-04-19T13:23:18;10.93;;;7.13;;
1753;SDS011;58380;48.312;9.246;2023-04-19T13:25:45;14.93;;;7.18;;
1753;SDS011;58380;48.312;9.246;2023-04-19T13:28:10;15.95;;;6.80;;
1753;SDS011;58380;48.312;9.246;2023-04-19T13:30:35;12.43;;;7.23;;
1753;SDS011;58380;48.312;9.246;2023-04-19T13:33:01;11.90;;;7.00;;
1753;SDS011;58380;48.312;9.246;2023-04-19T13:35:26;11.77;;;6.50;;
1753;SDS011;58380;48.312;9.246;2023-04-19T13:37:52;13.10;;;7.50;;
1753;SDS011;58380;48.312;9.246;2023-04-19T13:40:17;11.80;;;7.40;;
1753;SDS011;58380;48.312;9.246;2023-04-19T13:42:43;15.63;;;7.53;;
1753;SDS011;58380;48.312;9.246;2023-04-19T13:45:08;13.80;;;7.53;;
1753;SDS011;58380;48.312;9.246;2023-04-19T13:47:34;10.52;;;6.57;;
1753;SDS011;58380;48.312;9.246;2023-04-19T13:50:00;14.10;;;7.18;;
1753;SDS011;58380;48.312;9.246;2023-04-19T13:52:25;10.23;;;6.90;;
1753;SDS011;58380;48.312;9.246;2023-04-19T13:54:51;11.83;;;6.90;;
1753;SDS011;58380;48.312;9.246;2023-04-19T13:57:16;14.35;;;6.93;;
1753;SDS011;58380;48.312;9.246;2023-04-19T13:59:42;13.60;;;7.40;;
1753;SDS011;58380;48.312;9.246;2023-04-19T14:02:07;12.60;;;7.00;;
1753;SDS011;58380;48.312;9.246;2023-04-19T14:04:33;12.48;;;7.53;;
1753;SDS011;58380;48.312;9.246;2023-04-19T14:06:58;15.30;;;8.20;;
1753;SDS011;58380;48.312;9.246;2023-04-19T14:09:24;15.07;;;8.50;;
1753;SDS011;58380;48.312;9.246;2023-04-19T14:11:50;18.13;;;8.57;;
1753;SDS011;58380;48.312;9.246;2023-04-19T14:14:15;18.63;;;8.70;;
1753;SDS011;58380;48.312;9.246;2023-04-19T14:16:41;14.55;;;8.80;;
1753;SDS011;58380;48.312;9.246;2023-04-19T14:19:07;15.23;;;8.43;;
1753;SDS011;58380;48.312;9.246;2023-04-19T14:21:33;14.97;;;7.90;;
1753;SDS011;58380;48.312;9.246;2023-04-19T14:23:58;15.00;;;8.85;;
1753;SDS011;58380;48.312;9.246;2023-04-19T14:26:24;18.53;;;8.73;;
1753;SDS011;58380;48.312;9.246;2023-04-19T14:28:50;17.47;;;9.13;;
1753;SDS011;58380;48.312;9.246;2023-04-19T14:31:15;15.55;;;9.10;;
1753;SDS011;58380;48.312;9.246;2023-04-19T14:33:41;13.73;;;7.97;;
1753;SDS011;58380;48.312;9.246;2023-04-19T14:36:06;12.97;;;7.63;;
1753;SDS011;58380;48.312;9.246;2023-04-19T14:38:31;16.00;;;8.10;;
1753;SDS011;58380;48.312;9.246;2023-04-19T14:40:59;15.30;;;8.75;;
1753;SDS011;58380;48.312;9.246;2023-04-19T14:43:24;15.57;;;8.55;;
1753;SDS011;58380;48.312;9.246;2023-04-19T14:45:50;11.65;;;6.03;;
1753;SDS011;58380;48.312;9.246;2023-04-19T14:50:42;11.10;;;5.50;;
1753;SDS011;58380;48.312;9.246;2023-04-19T14:53:07;7.37;;;4.50;;
1753;SDS011;58380;48.312;9.246;2023-04-19T14:55:33;8.87;;;4.77;;
1753;SDS011;58380;48.312;9.246;2023-04-19T14:58:02;7.63;;;4.90;;
1753;SDS011;58380;48.312;9.246;2023-04-19T15:00:28;7.50;;;3.75;;
1753;SDS011;58380;48.312;9.246;2023-04-19T15:02:54;6.25;;;3.83;;
1753;SDS011;58380;48.312;9.246;2023-04-19T15:05:21;7.85;;;4.30;;
1753;SDS011;58380;48.312;9.246;2023-04-19T15:07:51;6.15;;;4.10;;
1753;SDS011;58380;48.312;9.246;2023-04-19T15:10:17;8.13;;;3.75;;
1753;SDS011;58380;48.312;9.246;2023-04-19T15:12:42;6.40;;;3.93;;
1753;SDS011;58380;48.312;9.246;2023-04-19T15:15:08;7.20;;;3.53;;
1753;SDS011;58380;48.312;9.246;2023-04-19T15:17:33;6.50;;;3.67;;
1753;SDS011;58380;48.312;9.246;2023-04-19T15:19:59;7.05;;;4.32;;
1753;SDS011;58380;48.312;9.246;2023-04-19T15:22:25;7.07;;;4.37;;
1753;SDS011;58380;48.312;9.246;2023-04-19T15:24:50;6.07;;;3.23;;
1753;SDS011;58380;48.312;9.246;2023-04-19T15:27:16;6.10;;;3.00;;
1753;SDS011;58380;48.312;9.246;2023-04-19T15:29:41;5.33;;;3.30;;
1753;SDS011;58380;48.312;9.246;2023-04-19T15:32:07;5.00;;;2.97;;
1753;SDS011;58380;48.312;9.246;2023-04-19T15:34:32;6.40;;;3.33;;
1753;SDS011;58380;48.312;9.246;2023-04-19T15:36:58;5.10;;;2.77;;
1753;SDS011;58380;48.312;9.246;2023-04-19T15:39:23;6.17;;;3.10;;
1753;SDS011;58380;48.312;9.246;2023-04-19T15:41:49;7.07;;;3.50;;
1753;SDS011;58380;48.312;9.246;2023-04-19T15:44:15;6.88;;;3.80;;
1753;SDS011;58380;48.312;9.246;2023-04-19T15:46:40;10.23;;;3.83;;
1753;SDS011;58380;48.312;9.246;2023-04-19T15:49:06;8.20;;;3.50;;
1753;SDS011;58380;48.312;9.246;2023-04-19T15:51:31;8.23;;;4.07;;
1753;SDS011;58380;48.312;9.246;2023-04-19T15:53:57;8.00;;;3.90;;
1753;SDS011;58380;48.312;9.246;2023-04-19T15:56:22;6.93;;;4.33;;
1753;SDS011;58380;48.312;9.246;2023-04-19T15:58:47;8.50;;;4.37;;
1753;SDS011;58380;48.312;9.246;2023-04-19T16:01:13;7.67;;;4.40;;
1753;SDS011;58380;48.312;9.246;2023-04-19T16:03:38;8.47;;;5.07;;
1753;SDS011;58380;48.312;9.246;2023-04-19T16:06:05;8.27;;;4.80;;
1753;SDS011;58380;48.312;9.246;2023-04-19T16:08:30;9.27;;;5.18;;
1753;SDS011;58380;48.312;9.246;2023-04-19T16:10:56;10.20;;;5.57;;
1753;SDS011;58380;48.312;9.246;2023-04-19T16:13:21;11.07;;;5.65;;
1753;SDS011;58380;48.312;9.246;2023-04-19T16:15:47;9.43;;;5.43;;
1753;SDS011;58380;48.312;9.246;2023-04-19T16:18:12;10.23;;;5.30;;
1753;SDS011;58380;48.312;9.246;2023-04-19T16:20:38;10.60;;;5.83;;
1753;SDS011;58380;48.312;9.246;2023-04-19T16:23:04;12.20;;;5.40;;
1753;SDS011;58380;48.312;9.246;2023-04-19T16:25:30;9.70;;;5.60;;
1753;SDS011;58380;48.312;9.246;2023-04-19T16:27:57;9.20;;;5.25;;
1753;SDS011;58380;48.312;9.246;2023-04-19T16:30:23;13.10;;;6.15;;
1753;SDS011;58380;48.312;9.246;2023-04-19T16:32:52;12.85;;;6.40;;
1753;SDS011;58380;48.312;9.246;2023-04-19T16:35:19;11.35;;;6.40;;
1753;SDS011;58380;48.312;9.246;2023-04-19T16:37:44;10.90;;;6.30;;
1753;SDS011;58380;48.312;9.246;2023-04-19T16:40:10;12.93;;;6.63;;
1753;SDS011;58380;48.312;9.246;2023-04-19T16:42:37;12.40;;;6.68;;
1753;SDS011;58380;48.312;9.246;2023-04-19T16:45:04;14.18;;;6.97;;
1753;SDS011;58380;48.312;9.246;2023-04-19T16:47:31;11.32;;;6.55;;
1753;SDS011;58380;48.312;9.246;2023-04-19T16:49:57;10.85;;;6.38;;
1753;SDS011;58380;48.312;9.246;2023-04-19T16:52:25;16.23;;;6.53;;
1753;SDS011;58380;48.312;9.246;2023-04-19T16:54:52;13.75;;;7.07;;
1753;SDS011;58380;48.312;9.246;2023-04-19T16:57:17;16.15;;;7.55;;
1753;SDS011;58380;48.312;9.246;2023-04-19T16:59:44;13.10;;;6.82;;
1753;SDS011;58380;48.312;9.246;2023-04-19T17:02:10;9.85;;;6.47;;
1753;SDS011;58380;48.312;9.246;2023-04-19T17:04:35;13.00;;;6.73;;
1753;SDS011;58380;48.312;9.246;2023-04-19T17:07:01;12.10;;;7.00;;
1753;SDS011;58380;48.312;9.246;2023-04-19T17:09:27;10.38;;;6.43;;
1753;SDS011;58380;48.312;9.246;2023-04-19T17:11:53;11.85;;;6.65;;
1753;SDS011;58380;48.312;9.246;2023-04-19T17:14:20;12.70;;;6.85;;
1753;SDS011;58380;48.312;9.246;2023-04-19T17:16:49;12.88;;;6.82;;
1753;SDS011;58380;48.312;9.246;2023-04-19T17:19:15;13.68;;;7.05;;
1753;SDS011;58380;48.312;9.246;2023-04-19T17:21:40;17.17;;;8.52;;
1753;SDS011;58380;48.312;9.246;2023-04-19T17:24:07;19.67;;;9.68;;
1753;SDS011;58380;48.312;9.246;2023-04-19T17:26:32;12.82;;;7.05;;
1753;SDS011;58380;48.312;9.246;2023-04-19T17:28:58;11.37;;;6.43;;
1753;SDS011;58380;48.312;9.246;2023-04-19T17:31:23;12.57;;;6.37;;
1753;SDS011;58380;48.312;9.246;2023-04-19T17:33:49;11.02;;;6.38;;
1753;SDS011;58380;48.312;9.246;2023-04-19T17:36:14;14.60;;;7.90;;
1753;SDS011;58380;48.312;9.246;2023-04-19T17:38:40;13.30;;;8.17;;
1753;SDS011;58380;48.312;9.246;2023-04-19T17:41:05;10.57;;;6.70;;
1753;SDS011;58380;48.312;9.246;2023-04-19T17:43:33;11.48;;;6.50;;
1753;SDS011;58380;48.312;9.246;2023-04-19T17:45:59;14.43;;;7.07;;
1753;SDS011;58380;48.312;9.246;2023-04-19T17:48:24;10.37;;;6.50;;
1753;SDS011;58380;48.312;9.246;2023-04-19T17:50:50;13.32;;;6.85;;
1753;SDS011;58380;48.312;9.246;2023-04-19T17:53:15;22.47;;;10.57;;
1753;SDS011;58380;48.312;9.246;2023-04-19T17:55:41;17.03;;;9.13;;
1753;SDS011;58380;48.312;9.246;2023-04-19T17:58:06;15.33;;;8.83;;
1753;SDS011;58380;48.312;9.246;2023-04-19T18:00:31;11.50;;;6.10;;
1753;SDS011;58380;48.312;9.246;2023-04-19T18:02:57;13.87;;;6.87;;
1753;SDS011;58380;48.312;9.246;2023-04-19T18:05:22;12.57;;;6.67;;
1753;SDS011;58380;48.312;9.246;2023-04-19T18:07:48;13.88;;;6.40;;
1753;SDS011;58380;48.312;9.246;2023-04-19T18:10:13;12.77;;;7.17;;
1753;SDS011;58380;48.312;9.246;2023-04-19T18:12:39;13.93;;;7.63;;
1753;SDS011;58380;48.312;9.246;2023-04-19T18:15:05;11.07;;;6.50;;
1753;SDS011;58380;48.312;9.246;2023-04-19T18:19:56;9.88;;;5.93;;
1753;SDS011;58380;48.312;9.246;2023-04-19T18:22:22;9.73;;;6.50;;
1753;SDS011;58380;48.312;9.246;2023-04-19T18:24:47;11.83;;;6.47;;
1753;SDS011;58380;48.312;9.246;2023-04-19T18:27:15;13.52;;;6.53;;
1753;SDS011;58380;48.312;9.246;2023-04-19T18:32:07;10.75;;;6.38;;
1753;SDS011;58380;48.312;9.246;2023-04-19T18:34:32;11.48;;;6.35;;
1753;SDS011;58380;48.312;9.246;2023-04-19T18:36:58;12.67;;;7.17;;
1753;SDS011;58380;48.312;9.246;2023-04-19T18:39:26;12.55;;;6.50;;
1753;SDS011;58380;48.312;9.246;2023-04-19T18:41:52;12.15;;;7.15;;
1753;SDS011;58380;48.312;9.246;2023-04-19T18:44:18;12.05;;;6.82;;
1753;SDS011;58380;48.312;9.246;2023-04-19T18:46:43;11.88;;;6.38;;
1753;SDS011;58380;48.312;9.246;2023-04-19T18:49:09;11.20;;;6.40;;
1753;SDS011;58380;48.312;9.246;2023-04-19T18:51:35;12.40;;;6.63;;
1753;SDS011;58380;48.312;9.246;2023-04-19T18:54:01;11.48;;;6.65;;
1753;SDS011;58380;48.312;9.246;2023-04-19T18:56:27;10.13;;;6.28;;
1753;SDS011;58380;48.312;9.246;2023-04-19T18:58:53;13.10;;;6.97;;
1753;SDS011;58380;48.312;9.246;2023-04-19T19:01:18;15.60;;;7.00;;
1753;SDS011;58380;48.312;9.246;2023-04-19T19:06:10;11.77;;;6.43;;
1753;SDS011;58380;48.312;9.246;2023-04-19T19:08:36;11.18;;;5.72;;
1753;SDS011;58380;48.312;9.246;2023-04-19T19:13:29;11.85;;;6.05;;
1753;SDS011;58380;48.312;9.246;2023-04-19T19:15:54;11.87;;;6.67;;
1753;SDS011;58380;48.312;9.246;2023-04-19T19:18:19;12.70;;;6.97;;
1753;SDS011;58380;48.312;9.246;2023-04-19T19:20:45;11.70;;;6.90;;
1753;SDS011;58380;48.312;9.246;2023-04-19T19:23:10;15.87;;;7.07;;
1753;SDS011;58380;48.312;9.246;2023-04-19T19:25:36;14.52;;;6.93;;
1753;SDS011;58380;48.312;9.246;2023-04-19T19:28:02;11.30;;;6.63;;
1753;SDS011;58380;48.312;9.246;2023-04-19T19:30:27;12.27;;;6.97;;
1753;SDS011;58380;48.312;9.246;2023-04-19T19:32:57;12.90;;;7.43;;
1753;SDS011;58380;48.312;9.246;2023-04-19T19:35:22;12.75;;;6.80;;
1753;SDS011;58380;48.312;9.246;2023-04-19T19:37:48;17.00;;;8.07;;
1753;SDS011;58380;48.312;9.246;2023-04-19T19:40:13;11.77;;;6.40;;
1753;SDS011;58380;48.312;9.246;2023-04-19T19:42:39;15.75;;;6.88;;
1753;SDS011;58380;48.312;9.246;2023-04-19T19:45:05;13.47;;;6.50;;
1753;SDS011;58380;48.312;9.246;2023-04-19T19:47:31;11.98;;;6.40;;
1753;SDS011;58380;48.312;9.246;2023-04-19T19:49:59;11.43;;;6.20;;
1753;SDS011;58380;48.312;9.246;2023-04-19T19:52:26;11.60;;;6.75;;
1753;SDS011;58380;48.312;9.246;2023-04-19T19:54:52;11.07;;;6.45;;
1753;SDS011;58380;48.312;9.246;2023-04-19T19:57:17;13.87;;;6.50;;
1753;SDS011;58380;48.312;9.246;2023-04-19T19:59:43;15.97;;;7.67;;
1753;SDS011;58380;48.312;9.246;2023-04-19T20:02:09;10.75;;;6.22;;
1753;SDS011;58380;48.312;9.246;2023-04-19T20:04:34;12.80;;;7.20;;
1753;SDS011;58380;48.312;9.246;2023-04-19T20:07:02;12.50;;;6.90;;
1753;SDS011;58380;48.312;9.246;2023-04-19T20:09:28;14.57;;;6.88;;
1753;SDS011;58380;48.312;9.246;2023-04-19T20:11:54;13.73;;;6.67;;
1753;SDS011;58380;48.312;9.246;2023-04-19T20:14:20;9.73;;;5.77;;
1753;SDS011;58380;48.312;9.246;2023-04-19T20:16:47;11.02;;;6.25;;
